createdAt,value
2023-09-01T00:00:04.054Z,92.35
2023-09-01T00:01:04.074Z,92.25
2023-09-01T00:02:04.021Z,92.25
2023-09-01T00:03:04.036Z,92.25
2023-09-01T00:04:04.122Z,92.25
2023-09-01T00:05:03.998Z,92.14
2023-09-01T00:06:04.083Z,92.35
2023-09-01T00:07:03.950Z,92.14
2023-09-01T00:08:03.959Z,92.55
2023-09-01T00:09:03.952Z,92.70
2023-09-01T00:10:03.937Z,92.76
2023-09-01T00:11:03.958Z,92.86
2023-09-01T00:12:03.902Z,92.55
2023-09-01T00:13:03.908Z,92.60
2023-09-01T00:14:03.898Z,92.65
2023-09-01T00:15:03.884Z,92.60
2023-09-01T00:16:03.860Z,92.55
2023-09-01T00:17:03.866Z,92.76
2023-09-01T00:18:03.889Z,92.70
2023-09-01T00:19:03.849Z,92.80
2023-09-01T00:20:03.847Z,92.90
2023-09-01T00:21:03.813Z,92.90
2023-09-01T00:22:03.898Z,92.90
2023-09-01T00:23:03.776Z,92.70
2023-09-01T00:24:03.847Z,92.60
2023-09-01T00:25:03.782Z,92.80
2023-09-01T00:26:03.779Z,92.70
2023-09-01T00:27:03.737Z,92.70
2023-09-01T00:28:03.726Z,93.01
2023-09-01T00:29:03.743Z,92.80
2023-09-01T00:30:03.748Z,92.80
2023-09-01T00:31:03.809Z,93.01
2023-09-01T00:32:03.731Z,93.01
2023-09-01T00:33:03.881Z,93.01
2023-09-01T00:34:03.732Z,93.01
2023-09-01T00:35:03.718Z,93.01
2023-09-01T00:36:03.687Z,93.10
2023-09-01T00:37:03.699Z,93.10
2023-09-01T00:38:03.673Z,93.10
2023-09-01T00:39:03.643Z,93.10
2023-09-01T00:40:03.662Z,93.01
2023-09-01T00:41:03.639Z,93.21
2023-09-01T00:42:03.581Z,93.21
2023-09-01T00:43:03.602Z,93.21
2023-09-01T00:44:03.595Z,93.21
2023-09-01T00:45:03.548Z,93.31
2023-09-01T00:46:03.620Z,93.31
2023-09-01T00:47:03.585Z,93.31
2023-09-01T00:48:03.601Z,93.21
2023-09-01T00:49:03.510Z,93.31
2023-09-01T00:50:03.503Z,93.21
2023-09-01T00:51:03.608Z,93.21
2023-09-01T00:52:03.516Z,93.41
2023-09-01T00:53:03.496Z,93.41
2023-09-01T00:54:03.502Z,93.41
2023-09-01T00:55:03.476Z,93.51
2023-09-01T00:56:03.474Z,93.51
2023-09-01T00:57:03.424Z,93.41
2023-09-01T00:58:03.444Z,93.45
2023-09-01T00:59:03.457Z,93.45
2023-09-01T01:00:03.420Z,93.55
2023-09-01T01:01:03.413Z,93.66
2023-09-01T01:02:03.530Z,93.55
2023-09-01T01:03:03.522Z,93.55
2023-09-01T01:04:03.382Z,93.76
2023-09-01T01:05:03.429Z,93.55
2023-09-01T01:06:03.333Z,93.55
2023-09-01T01:07:03.368Z,93.86
2023-09-01T01:08:03.352Z,93.86
2023-09-01T01:09:03.356Z,93.76
2023-09-01T01:10:03.304Z,93.96
2023-09-01T01:11:03.322Z,93.86
2023-09-01T01:12:03.298Z,93.96
2023-09-01T01:13:03.277Z,93.86
2023-09-01T01:14:03.313Z,93.86
2023-09-01T01:15:03.267Z,93.76
2023-09-01T01:16:03.294Z,93.66
2023-09-01T01:17:03.934Z,93.55
2023-09-01T01:18:03.290Z,93.76
2023-09-01T01:19:03.249Z,93.96
2023-09-01T01:20:03.246Z,93.96
2023-09-01T01:21:03.236Z,93.86
2023-09-01T01:22:03.197Z,93.66
2023-09-01T01:23:03.186Z,93.96
2023-09-01T01:24:03.163Z,93.86
2023-09-01T01:25:03.212Z,93.86
2023-09-01T01:26:03.165Z,93.86
2023-09-01T01:27:03.117Z,94.07
2023-09-01T01:28:03.124Z,94.07
2023-09-01T01:29:03.135Z,94.17
2023-09-01T01:30:03.123Z,94.27
2023-09-01T01:31:03.147Z,94.47
2023-09-01T01:32:03.122Z,94.27
2023-09-01T01:33:03.144Z,94.17
2023-09-01T01:34:03.081Z,94.27
2023-09-01T01:35:03.039Z,94.42
2023-09-01T01:36:03.054Z,94.31
2023-09-01T01:37:03.070Z,94.37
2023-09-01T01:38:03.014Z,94.07
2023-09-01T01:39:03.019Z,94.31
2023-09-01T01:40:03.002Z,94.21
2023-09-01T01:41:03.030Z,94.42
2023-09-01T01:42:03.006Z,94.31
2023-09-01T01:43:02.989Z,94.31
2023-09-01T01:44:02.961Z,94.21
2023-09-01T01:45:02.966Z,94.31
2023-09-01T01:46:02.997Z,94.31
2023-09-01T01:47:02.926Z,94.21
2023-09-01T01:48:02.976Z,94.21
2023-09-01T01:49:02.933Z,94.42
2023-09-01T01:50:02.906Z,94.42
2023-09-01T01:51:02.900Z,94.52
2023-09-01T01:52:02.884Z,94.72
2023-09-01T01:53:02.902Z,94.72
2023-09-01T01:54:02.863Z,94.52
2023-09-01T01:55:02.874Z,94.52
2023-09-01T01:56:02.842Z,94.62
2023-09-01T01:57:02.814Z,94.72
2023-09-01T01:58:02.830Z,94.72
2023-09-01T01:59:02.815Z,94.82
2023-09-01T02:00:02.857Z,94.82
2023-09-01T02:01:02.817Z,94.72
2023-09-01T02:02:02.823Z,94.92
2023-09-01T02:03:02.819Z,94.82
2023-09-01T02:04:02.804Z,94.72
2023-09-01T02:05:02.853Z,94.82
2023-09-01T02:06:02.783Z,95.03
2023-09-01T02:07:02.740Z,95.03
2023-09-01T02:08:02.753Z,95.23
2023-09-01T02:09:02.761Z,95.13
2023-09-01T02:10:02.678Z,95.23
2023-09-01T02:11:02.754Z,95.13
2023-09-01T02:12:02.690Z,95.07
2023-09-01T02:13:02.668Z,95.28
2023-09-01T02:14:02.905Z,95.28
2023-09-01T02:15:02.646Z,95.37
2023-09-01T02:16:02.679Z,95.37
2023-09-01T02:17:02.653Z,95.37
2023-09-01T02:18:02.617Z,95.37
2023-09-01T02:19:02.609Z,95.37
2023-09-01T02:20:02.619Z,95.48
2023-09-01T02:21:02.604Z,95.58
2023-09-01T02:22:02.571Z,95.68
2023-09-01T02:23:02.569Z,95.58
2023-09-01T02:24:02.587Z,95.58
2023-09-01T02:25:02.561Z,95.68
2023-09-01T02:26:02.538Z,95.58
2023-09-01T02:27:02.516Z,95.68
2023-09-01T02:28:02.508Z,95.37
2023-09-01T02:29:02.513Z,95.68
2023-09-01T02:30:02.527Z,95.68
2023-09-01T02:31:02.459Z,95.78
2023-09-01T02:32:02.495Z,95.68
2023-09-01T02:33:02.490Z,95.42
2023-09-01T02:34:02.459Z,95.48
2023-09-01T02:35:02.441Z,95.73
2023-09-01T02:36:02.454Z,95.83
2023-09-01T02:37:02.467Z,95.73
2023-09-01T02:38:02.417Z,95.93
2023-09-01T02:39:02.403Z,95.93
2023-09-01T02:40:02.454Z,95.83
2023-09-01T02:41:02.382Z,96.23
2023-09-01T02:42:02.425Z,96.23
2023-09-01T02:43:02.346Z,96.44
2023-09-01T02:44:02.334Z,96.44
2023-09-01T02:45:02.335Z,96.34
2023-09-01T02:46:02.360Z,96.28
2023-09-01T02:47:02.321Z,96.48
2023-09-01T02:48:02.333Z,96.69
2023-09-01T02:49:02.291Z,96.69
2023-09-01T02:50:02.284Z,96.64
2023-09-01T02:51:02.274Z,96.64
2023-09-01T02:52:02.266Z,96.48
2023-09-01T02:53:02.294Z,96.38
2023-09-01T02:54:02.248Z,96.38
2023-09-01T02:55:02.248Z,96.59
2023-09-01T02:56:02.257Z,96.59
2023-09-01T02:57:02.241Z,96.59
2023-09-01T02:58:02.273Z,96.69
2023-09-01T02:59:02.246Z,96.69
2023-09-01T03:00:02.182Z,96.89
2023-09-01T03:01:02.224Z,96.89
2023-09-01T03:02:02.194Z,96.79
2023-09-01T03:03:02.217Z,96.79
2023-09-01T03:04:02.163Z,96.59
2023-09-01T03:05:02.157Z,96.59
2023-09-01T03:06:02.139Z,96.28
2023-09-01T03:07:02.112Z,96.28
2023-09-01T03:08:02.098Z,96.28
2023-09-01T03:09:02.085Z,96.28
2023-09-01T03:10:02.113Z,96.28
2023-09-01T03:11:02.115Z,96.38
2023-09-01T03:12:02.064Z,96.48
2023-09-01T03:13:02.024Z,96.48
2023-09-01T03:14:02.046Z,96.38
2023-09-01T03:15:02.050Z,96.59
2023-09-01T03:16:02.445Z,96.28
2023-09-01T03:17:02.031Z,96.48
2023-09-01T03:18:02.001Z,96.59
2023-09-01T03:19:01.979Z,96.69
2023-09-01T03:20:02.012Z,96.59
2023-09-01T03:21:01.975Z,96.38
2023-09-01T03:22:01.962Z,96.28
2023-09-01T03:23:01.919Z,96.59
2023-09-01T03:24:02.016Z,96.59
2023-09-01T03:25:01.978Z,96.59
2023-09-01T03:26:01.948Z,96.69
2023-09-01T03:27:01.905Z,96.69
2023-09-01T03:28:01.882Z,96.79
2023-09-01T03:29:02.832Z,96.89
2023-09-01T03:30:01.898Z,96.59
2023-09-01T03:31:01.878Z,96.79
2023-09-01T03:32:01.888Z,96.84
2023-09-01T03:33:01.852Z,96.79
2023-09-01T03:34:01.848Z,96.89
2023-09-01T03:35:01.841Z,97.00
2023-09-01T03:36:01.798Z,96.79
2023-09-01T03:37:01.803Z,96.89
2023-09-01T03:38:01.782Z,96.69
2023-09-01T03:39:01.788Z,96.48
2023-09-01T03:40:01.731Z,96.69
2023-09-01T03:41:01.705Z,96.79
2023-09-01T03:42:01.707Z,96.94
2023-09-01T03:43:01.714Z,96.79
2023-09-01T03:44:01.673Z,96.79
2023-09-01T03:45:01.691Z,96.79
2023-09-01T03:46:01.772Z,96.69
2023-09-01T03:47:01.682Z,96.69
2023-09-01T03:48:01.735Z,96.48
2023-09-01T03:49:01.628Z,96.73
2023-09-01T03:50:01.648Z,96.73
2023-09-01T03:51:01.618Z,96.84
2023-09-01T03:52:01.600Z,96.94
2023-09-01T03:53:01.606Z,97.14
2023-09-01T03:54:01.572Z,97.24
2023-09-01T03:55:01.583Z,97.24
2023-09-01T03:56:01.549Z,97.24
2023-09-01T03:57:01.550Z,97.34
2023-09-01T03:58:01.568Z,97.45
2023-09-01T03:59:01.566Z,97.45
2023-09-01T04:00:01.530Z,97.65
2023-09-01T04:01:01.492Z,97.55
2023-09-01T04:02:01.500Z,97.34
2023-09-01T04:03:01.606Z,97.45
2023-09-01T04:04:01.555Z,97.55
2023-09-01T04:05:01.476Z,97.60
2023-09-01T04:06:01.493Z,97.60
2023-09-01T04:07:01.460Z,97.90
2023-09-01T04:08:01.539Z,97.65
2023-09-01T04:09:01.571Z,97.65
2023-09-01T04:10:01.402Z,97.34
2023-09-01T04:11:01.404Z,97.24
2023-09-01T04:12:01.433Z,97.04
2023-09-01T04:13:01.362Z,96.84
2023-09-01T04:14:01.372Z,97.04
2023-09-01T04:15:01.338Z,96.94
2023-09-01T04:16:01.441Z,96.84
2023-09-01T04:17:01.378Z,96.94
2023-09-01T04:18:01.375Z,96.73
2023-09-01T04:19:01.373Z,96.73
2023-09-01T04:20:01.307Z,96.73
2023-09-01T04:21:01.354Z,96.63
2023-09-01T04:22:01.538Z,96.53
2023-09-01T04:23:01.277Z,96.63
2023-09-01T04:24:01.247Z,96.53
2023-09-01T04:25:01.217Z,96.53
2023-09-01T04:26:01.230Z,96.38
2023-09-01T04:27:01.257Z,96.33
2023-09-01T04:28:01.271Z,96.43
2023-09-01T04:29:01.327Z,96.18
2023-09-01T04:30:09.783Z,96.28
2023-09-01T04:31:02.221Z,95.77
2023-09-01T04:32:01.258Z,95.67
2023-09-01T04:33:01.206Z,95.67
2023-09-01T04:34:01.763Z,95.77
2023-09-01T04:35:01.155Z,95.57
2023-09-01T04:36:01.156Z,95.47
2023-09-01T04:37:01.227Z,95.47
2023-09-01T04:38:01.130Z,95.47
2023-09-01T04:39:01.118Z,95.26
2023-09-01T04:40:01.187Z,95.26
2023-09-01T04:41:01.096Z,95.26
2023-09-01T04:42:01.089Z,95.26
2023-09-01T04:43:01.099Z,95.06
2023-09-01T04:44:01.145Z,95.16
2023-09-01T04:45:01.050Z,95.16
2023-09-01T04:46:01.049Z,95.01
2023-09-01T04:47:01.047Z,94.95
2023-09-01T04:48:01.048Z,94.95
2023-09-01T04:49:01.023Z,94.95
2023-09-01T04:50:00.998Z,94.75
2023-09-01T04:51:00.961Z,94.65
2023-09-01T04:52:01.003Z,94.81
2023-09-01T04:53:01.092Z,94.75
2023-09-01T04:54:00.958Z,94.91
2023-09-01T04:55:00.923Z,95.01
2023-09-01T04:56:00.948Z,94.81
2023-09-01T04:57:00.951Z,94.81
2023-09-01T04:58:01.037Z,94.60
2023-09-01T04:59:00.905Z,94.50
2023-09-01T05:00:00.921Z,94.40
2023-09-01T05:01:00.945Z,94.30
2023-09-01T05:02:00.901Z,94.15
2023-09-01T05:03:01.166Z,94.05
2023-09-01T05:04:01.004Z,93.64
2023-09-01T05:05:00.806Z,93.74
2023-09-01T05:06:00.839Z,93.33
2023-09-01T05:07:00.813Z,93.54
2023-09-01T05:08:00.794Z,93.64
2023-09-01T05:09:00.876Z,93.44
2023-09-01T05:10:00.827Z,93.44
2023-09-01T05:11:00.753Z,93.33
2023-09-01T05:12:00.843Z,93.44
2023-09-01T05:13:00.762Z,93.19
2023-09-01T05:14:00.788Z,93.09
2023-09-01T05:15:00.733Z,92.19
2023-09-01T05:16:00.796Z,89.92
2023-09-01T05:17:00.751Z,87.20
2023-09-01T05:18:00.722Z,84.75
2023-09-01T05:19:00.779Z,82.28
2023-09-01T05:20:00.790Z,80.98
2023-09-01T05:21:00.660Z,78.88
2023-09-01T05:22:00.754Z,78.24
2023-09-01T05:23:00.733Z,76.89
2023-09-01T05:24:00.655Z,75.60
2023-09-01T05:25:00.706Z,73.82
2023-09-01T05:26:00.621Z,72.78
2023-09-01T05:27:00.698Z,71.94
2023-09-01T05:28:00.668Z,70.70
2023-09-01T05:29:00.671Z,70.70
2023-09-01T05:30:00.605Z,70.06
2023-09-01T05:31:00.647Z,69.02
2023-09-01T05:32:00.607Z,68.59
2023-09-01T05:33:00.592Z,67.94
2023-09-01T05:34:00.619Z,66.47
2023-09-01T05:35:00.540Z,67.47
2023-09-01T05:36:00.519Z,67.81
2023-09-01T05:37:00.813Z,69.65
2023-09-01T05:38:00.593Z,69.52
2023-09-01T05:39:00.549Z,68.78
2023-09-01T05:40:02.780Z,67.07
2023-09-01T05:41:00.479Z,68.78
2023-09-01T05:42:00.512Z,67.41
2023-09-01T05:43:00.517Z,66.91
2023-09-01T05:44:00.477Z,66.71
2023-09-01T05:45:00.443Z,65.37
2023-09-01T05:46:00.590Z,65.47
2023-09-01T05:47:00.401Z,66.05
2023-09-01T05:48:00.527Z,65.01
2023-09-01T05:49:00.393Z,64.91
2023-09-01T05:50:00.454Z,64.31
2023-09-01T05:51:00.373Z,64.71
2023-09-01T05:52:00.345Z,63.98
2023-09-01T05:53:00.682Z,63.67
2023-09-01T05:54:00.462Z,63.17
2023-09-01T05:55:00.309Z,63.87
2023-09-01T05:56:00.360Z,64.07
2023-09-01T05:57:00.324Z,63.78
2023-09-01T05:58:00.347Z,63.04
2023-09-01T05:59:00.280Z,63.04
2023-09-01T06:00:00.253Z,63.24
2023-09-01T06:01:00.266Z,63.78
2023-09-01T06:02:00.284Z,63.17
2023-09-01T06:03:00.333Z,63.90
2023-09-01T06:04:00.268Z,64.68
2023-09-01T06:05:00.368Z,63.75
2023-09-01T06:06:00.215Z,63.84
2023-09-01T06:07:00.188Z,63.04
2023-09-01T06:08:00.196Z,64.07
2023-09-01T06:09:00.244Z,63.24
2023-09-01T06:10:00.268Z,63.45
2023-09-01T06:11:00.143Z,63.31
2023-09-01T06:12:00.160Z,62.68
2023-09-01T06:13:00.150Z,61.55
2023-09-01T06:14:00.125Z,61.45
2023-09-01T06:15:00.106Z,60.65
2023-09-01T06:16:00.136Z,61.35
2023-09-01T06:17:00.209Z,61.41
2023-09-01T06:18:00.150Z,62.34
2023-09-01T06:19:00.191Z,63.78
2023-09-01T06:20:00.058Z,63.84
2023-09-01T06:21:00.128Z,63.31
2023-09-01T06:22:00.210Z,62.38
2023-09-01T06:23:00.782Z,62.08
2023-09-01T06:24:00.057Z,61.88
2023-09-01T06:25:00.026Z,62.18
2023-09-01T06:26:00.044Z,61.55
2023-09-01T06:27:00.059Z,61.05
2023-09-01T06:28:00.155Z,61.35
2023-09-01T06:28:59.965Z,60.92
2023-09-01T06:29:59.964Z,60.95
2023-09-01T06:30:59.985Z,61.91
2023-09-01T06:31:59.932Z,63.50
2023-09-01T06:32:59.970Z,65.67
2023-09-01T06:33:59.974Z,67.11
2023-09-01T06:34:59.895Z,67.68
2023-09-01T06:35:59.921Z,67.68
2023-09-01T06:36:59.895Z,68.82
2023-09-01T06:37:59.897Z,69.92
2023-09-01T06:38:59.874Z,68.71
2023-09-01T06:39:59.938Z,68.88
2023-09-01T06:40:59.839Z,67.85
2023-09-01T06:41:59.877Z,67.41
2023-09-01T06:42:59.868Z,67.65
2023-09-01T06:43:59.839Z,67.78
2023-09-01T06:44:59.892Z,69.56
2023-09-01T06:45:59.805Z,72.38
2023-09-01T06:46:59.867Z,73.05
2023-09-01T06:47:59.818Z,74.93
2023-09-01T06:48:59.807Z,76.48
2023-09-01T06:49:59.782Z,77.84
2023-09-01T06:50:59.744Z,78.68
2023-09-01T06:51:59.920Z,79.19
2023-09-01T06:52:59.755Z,79.49
2023-09-01T06:53:59.812Z,79.39
2023-09-01T06:54:59.825Z,79.83
2023-09-01T06:55:59.692Z,80.24
2023-09-01T06:56:59.682Z,80.54
2023-09-01T06:57:59.715Z,80.54
2023-09-01T06:58:59.673Z,81.09
2023-09-01T06:59:59.749Z,80.74
2023-09-01T07:00:59.704Z,81.35
2023-09-01T07:01:59.694Z,80.84
2023-09-01T07:02:59.692Z,81.09
2023-09-01T07:03:59.696Z,81.59
2023-09-01T07:04:59.622Z,82.10
2023-09-01T07:05:59.594Z,81.49
2023-09-01T07:06:59.598Z,81.29
2023-09-01T07:07:59.594Z,82.06
2023-09-01T07:08:59.567Z,82.16
2023-09-01T07:09:59.630Z,81.25
2023-09-01T07:10:59.565Z,81.45
2023-09-01T07:11:59.562Z,81.05
2023-09-01T07:12:59.571Z,82.16
2023-09-01T07:13:59.520Z,81.85
2023-09-01T07:14:59.604Z,81.25
2023-09-01T07:15:59.744Z,81.85
2023-09-01T07:16:59.533Z,81.21
2023-09-01T07:17:59.497Z,81.71
2023-09-01T07:18:59.534Z,81.17
2023-09-01T07:19:59.583Z,81.17
2023-09-01T07:20:59.529Z,80.66
2023-09-01T07:21:59.420Z,80.57
2023-09-01T07:22:59.435Z,80.36
2023-09-01T07:23:59.495Z,79.96
2023-09-01T07:24:59.558Z,79.86
2023-09-01T07:25:59.405Z,80.26
2023-09-01T07:26:59.454Z,80.66
2023-09-01T07:27:59.336Z,80.40
2023-09-01T07:28:59.929Z,80.50
2023-09-01T07:29:59.331Z,80.77
2023-09-01T07:30:59.334Z,81.17
2023-09-01T07:31:59.393Z,81.17
2023-09-01T07:32:59.472Z,81.17
2023-09-01T07:33:59.392Z,80.57
2023-09-01T07:34:59.278Z,81.07
2023-09-01T07:35:59.378Z,80.83
2023-09-01T07:36:59.318Z,80.32
2023-09-01T07:37:59.268Z,80.83
2023-09-01T07:38:59.218Z,80.29
2023-09-01T07:39:59.344Z,79.79
2023-09-01T07:40:59.255Z,79.68
2023-09-01T07:41:59.247Z,79.79
2023-09-01T07:42:59.236Z,79.68
2023-09-01T07:43:59.232Z,79.68
2023-09-01T07:44:59.159Z,80.25
2023-09-01T07:45:59.273Z,80.15
2023-09-01T07:46:59.275Z,79.64
2023-09-01T07:48:14.365Z,79.34
2023-09-01T07:49:00.181Z,79.14
2023-09-01T07:49:59.128Z,78.59
2023-09-01T07:50:59.473Z,78.59
2023-09-01T07:51:59.136Z,78.43
2023-09-01T07:52:59.130Z,78.84
2023-09-01T07:53:59.085Z,78.84
2023-09-01T07:54:59.150Z,79.44
2023-09-01T07:56:05.112Z,78.70
2023-09-01T07:56:59.180Z,79.10
2023-09-01T07:57:59.100Z,79.10
2023-09-01T07:58:59.025Z,78.59
2023-09-01T07:59:59.018Z,78.59
2023-09-01T08:00:59.015Z,77.79
2023-09-01T08:01:59.086Z,78.09
2023-09-01T08:02:59.160Z,77.69
2023-09-01T08:03:59.046Z,78.09
2023-09-01T08:04:59.147Z,77.99
2023-09-01T08:05:58.981Z,77.75
2023-09-01T08:06:59.007Z,77.89
2023-09-01T08:07:58.956Z,78.06
2023-09-01T08:08:59.009Z,77.86
2023-09-01T08:09:58.910Z,78.06
2023-09-01T08:10:58.918Z,77.42
2023-09-01T08:11:58.911Z,77.92
2023-09-01T08:12:58.955Z,77.01
2023-09-01T08:13:58.896Z,77.48
2023-09-01T08:14:58.906Z,76.51
2023-09-01T08:15:58.868Z,77.21
2023-09-01T08:16:58.925Z,76.47
2023-09-01T08:17:58.881Z,77.28
2023-09-01T08:18:58.849Z,77.08
2023-09-01T08:19:58.833Z,76.37
2023-09-01T08:20:58.858Z,76.17
2023-09-01T08:21:58.832Z,75.76
2023-09-01T08:22:58.779Z,75.96
2023-09-01T08:23:58.770Z,76.54
2023-09-01T08:24:59.633Z,76.54
2023-09-01T08:25:58.833Z,75.02
2023-09-01T08:26:58.797Z,74.73
2023-09-01T08:27:58.773Z,75.63
2023-09-01T08:28:58.737Z,75.53
2023-09-01T08:29:58.723Z,74.82
2023-09-01T08:30:58.804Z,75.39
2023-09-01T08:31:58.700Z,74.49
2023-09-01T08:32:58.807Z,74.73
2023-09-01T08:33:58.719Z,75.02
2023-09-01T08:34:59.635Z,73.92
2023-09-01T08:35:58.757Z,74.82
2023-09-01T08:36:58.695Z,74.93
2023-09-01T08:37:58.640Z,73.92
2023-09-01T08:38:58.661Z,73.92
2023-09-01T08:39:58.635Z,72.91
2023-09-01T08:40:58.665Z,73.41
2023-09-01T08:41:58.637Z,74.12
2023-09-01T08:42:58.607Z,74.12
2023-09-01T08:43:58.588Z,74.12
2023-09-01T08:44:59.087Z,73.72
2023-09-01T08:46:12.349Z,73.41
2023-09-01T08:46:59.643Z,73.52
2023-09-01T08:47:58.572Z,72.88
2023-09-01T08:48:58.572Z,72.97
2023-09-01T08:49:58.572Z,71.97
2023-09-01T08:50:58.571Z,72.47
2023-09-01T08:51:58.499Z,72.67
2023-09-01T08:52:58.501Z,71.73
2023-09-01T08:53:58.495Z,72.03
2023-09-01T08:54:58.494Z,72.03
2023-09-01T08:55:58.479Z,71.09
2023-09-01T08:56:58.445Z,72.00
2023-09-01T08:57:58.453Z,71.40
2023-09-01T08:58:58.459Z,71.06
2023-09-01T08:59:58.450Z,70.39
2023-09-01T09:00:58.415Z,70.50
2023-09-01T09:01:58.426Z,70.36
2023-09-01T09:03:07.599Z,70.86
2023-09-01T09:03:59.544Z,71.16
2023-09-01T09:04:58.365Z,70.23
2023-09-01T09:05:58.365Z,69.72
2023-09-01T09:06:58.348Z,69.72
2023-09-01T09:07:58.373Z,69.62
2023-09-01T09:08:58.343Z,69.42
2023-09-01T09:09:58.319Z,68.72
2023-09-01T09:10:58.415Z,68.32
2023-09-01T09:11:58.397Z,69.02
2023-09-01T09:12:58.312Z,68.92
2023-09-01T09:14:09.233Z,67.41
2023-09-01T09:14:59.678Z,67.41
2023-09-01T09:15:58.300Z,67.82
2023-09-01T09:16:58.281Z,67.21
2023-09-01T09:17:58.472Z,67.41
2023-09-01T09:18:58.342Z,67.21
2023-09-01T09:19:58.407Z,67.61
2023-09-01T09:20:58.228Z,67.31
2023-09-01T09:21:58.254Z,67.31
2023-09-01T09:22:58.195Z,68.52
2023-09-01T09:24:15.307Z,66.88
2023-09-01T09:24:59.175Z,66.67
2023-09-01T09:25:58.156Z,66.28
2023-09-01T09:26:58.176Z,66.38
2023-09-01T09:27:58.175Z,66.08
2023-09-01T09:28:58.190Z,66.38
2023-09-01T09:29:58.149Z,66.14
2023-09-01T09:30:58.127Z,65.07
2023-09-01T09:31:58.138Z,65.67
2023-09-01T09:32:58.095Z,66.14
2023-09-01T09:33:58.097Z,66.35
2023-09-01T09:34:58.050Z,66.24
2023-09-01T09:35:58.066Z,65.14
2023-09-01T09:36:58.064Z,65.27
2023-09-01T09:37:58.011Z,64.97
2023-09-01T09:38:58.052Z,65.94
2023-09-01T09:39:58.069Z,64.11
2023-09-01T09:40:58.014Z,64.61
2023-09-01T09:41:58.109Z,65.01
2023-09-01T09:42:58.009Z,62.80
2023-09-01T09:43:57.994Z,63.81
2023-09-01T09:44:57.952Z,63.20
2023-09-01T09:45:58.007Z,63.93
2023-09-01T09:46:57.974Z,64.51
2023-09-01T09:47:58.076Z,63.40
2023-09-01T09:48:58.030Z,64.48
2023-09-01T09:49:57.929Z,64.07
2023-09-01T09:50:57.874Z,62.77
2023-09-01T09:51:57.926Z,62.67
2023-09-01T09:52:57.912Z,62.64
2023-09-01T09:53:57.910Z,62.54
2023-09-01T09:54:57.844Z,62.67
2023-09-01T09:55:57.875Z,63.70
2023-09-01T09:56:57.849Z,64.43
2023-09-01T09:57:57.839Z,64.31
2023-09-01T09:58:57.974Z,63.20
2023-09-01T09:59:57.822Z,63.37
2023-09-01T10:00:57.834Z,63.28
2023-09-01T10:01:57.867Z,62.84
2023-09-01T10:02:57.819Z,63.87
2023-09-01T10:03:57.819Z,63.47
2023-09-01T10:04:57.768Z,62.57
2023-09-01T10:05:57.728Z,62.47
2023-09-01T10:06:57.707Z,62.27
2023-09-01T10:07:57.793Z,62.90
2023-09-01T10:08:57.717Z,62.87
2023-09-01T10:09:57.748Z,62.97
2023-09-01T10:10:57.690Z,64.07
2023-09-01T10:11:57.675Z,62.64
2023-09-01T10:12:57.666Z,63.64
2023-09-01T10:13:57.675Z,62.11
2023-09-01T10:14:57.696Z,62.01
2023-09-01T10:15:57.669Z,61.38
2023-09-01T10:16:57.658Z,61.84
2023-09-01T10:17:57.699Z,61.94
2023-09-01T10:18:57.606Z,62.74
2023-09-01T10:19:57.653Z,61.71
2023-09-01T10:20:57.634Z,62.84
2023-09-01T10:21:57.578Z,61.94
2023-09-01T10:22:57.578Z,61.87
2023-09-01T10:23:57.586Z,62.47
2023-09-01T10:24:57.599Z,61.36
2023-09-01T10:25:57.552Z,61.87
2023-09-01T10:26:57.567Z,61.14
2023-09-01T10:27:57.510Z,61.44
2023-09-01T10:28:57.526Z,60.51
2023-09-01T10:29:57.535Z,60.33
2023-09-01T10:30:57.522Z,61.24
2023-09-01T10:31:57.563Z,61.24
2023-09-01T10:32:57.560Z,61.11
2023-09-01T10:33:57.523Z,60.94
2023-09-01T10:34:57.506Z,62.54
2023-09-01T10:35:57.467Z,61.31
2023-09-01T10:36:57.393Z,61.01
2023-09-01T10:37:57.451Z,60.78
2023-09-01T10:38:57.420Z,60.48
2023-09-01T10:39:57.426Z,60.18
2023-09-01T10:40:57.427Z,59.08
2023-09-01T10:41:57.405Z,59.53
2023-09-01T10:42:57.377Z,60.36
2023-09-01T10:43:57.407Z,61.14
2023-09-01T10:44:57.339Z,60.64
2023-09-01T10:45:57.334Z,60.24
2023-09-01T10:46:57.359Z,59.83
2023-09-01T10:47:57.329Z,59.26
2023-09-01T10:48:57.358Z,60.57
2023-09-01T10:49:57.330Z,61.57
2023-09-01T10:50:57.340Z,61.34
2023-09-01T10:51:57.252Z,60.53
2023-09-01T10:52:57.333Z,61.47
2023-09-01T10:53:57.285Z,62.07
2023-09-01T10:54:57.256Z,60.84
2023-09-01T10:55:57.227Z,60.74
2023-09-01T10:56:57.245Z,60.74
2023-09-01T10:57:57.228Z,61.34
2023-09-01T10:58:58.494Z,60.51
2023-09-01T10:59:57.179Z,60.51
2023-09-01T11:00:57.247Z,60.21
2023-09-01T11:01:57.208Z,59.50
2023-09-01T11:02:57.298Z,58.58
2023-09-01T11:03:57.220Z,58.07
2023-09-01T11:04:57.177Z,58.05
2023-09-01T11:05:57.147Z,57.85
2023-09-01T11:06:57.215Z,58.35
2023-09-01T11:07:57.185Z,58.05
2023-09-01T11:08:57.132Z,58.87
2023-09-01T11:09:57.097Z,58.55
2023-09-01T11:10:57.984Z,58.98
2023-09-01T11:11:57.236Z,58.28
2023-09-01T11:12:57.027Z,59.61
2023-09-01T11:13:57.135Z,59.88
2023-09-01T11:14:57.156Z,60.48
2023-09-01T11:15:57.034Z,58.85
2023-09-01T11:16:57.093Z,59.25
2023-09-01T11:17:57.166Z,59.15
2023-09-01T11:18:56.995Z,58.45
2023-09-01T11:19:56.987Z,58.05
2023-09-01T11:20:57.052Z,57.75
2023-09-01T11:21:56.982Z,58.05
2023-09-01T11:22:56.969Z,59.15
2023-09-01T11:23:56.955Z,59.15
2023-09-01T11:24:56.919Z,59.55
2023-09-01T11:25:56.914Z,59.25
2023-09-01T11:26:56.911Z,60.18
2023-09-01T11:27:57.022Z,59.68
2023-09-01T11:28:56.940Z,59.58
2023-09-01T11:29:56.872Z,59.48
2023-09-01T11:30:56.925Z,58.85
2023-09-01T11:31:56.849Z,57.85
2023-09-01T11:32:56.982Z,58.02
2023-09-01T11:33:56.850Z,56.62
2023-09-01T11:34:56.873Z,57.12
2023-09-01T11:35:56.835Z,57.12
2023-09-01T11:36:56.816Z,58.15
2023-09-01T11:37:56.843Z,58.72
2023-09-01T11:38:56.808Z,58.09
2023-09-01T11:39:56.914Z,57.59
2023-09-01T11:40:56.822Z,58.29
2023-09-01T11:41:56.767Z,58.09
2023-09-01T11:42:56.795Z,58.22
2023-09-01T11:43:56.740Z,58.02
2023-09-01T11:44:56.751Z,58.32
2023-09-01T11:45:56.800Z,59.02
2023-09-01T11:46:56.713Z,58.52
2023-09-01T11:47:56.706Z,58.02
2023-09-01T11:48:56.709Z,58.92
2023-09-01T11:49:56.770Z,59.19
2023-09-01T11:50:56.651Z,58.09
2023-09-01T11:51:56.670Z,58.09
2023-09-01T11:52:56.660Z,57.87
2023-09-01T11:53:56.662Z,57.09
2023-09-01T11:54:56.713Z,58.19
2023-09-01T11:55:56.623Z,57.59
2023-09-01T11:56:56.640Z,57.59
2023-09-01T11:57:56.654Z,58.39
2023-09-01T11:58:56.637Z,58.19
2023-09-01T11:59:56.637Z,57.19
2023-09-01T12:00:56.545Z,57.59
2023-09-01T12:01:56.577Z,58.59
2023-09-01T12:02:56.614Z,58.09
2023-09-01T12:03:56.581Z,57.26
2023-09-01T12:04:56.547Z,56.96
2023-09-01T12:05:56.540Z,56.87
2023-09-01T12:06:56.535Z,58.17
2023-09-01T12:07:56.568Z,56.74
2023-09-01T12:08:56.590Z,56.54
2023-09-01T12:09:56.490Z,56.96
2023-09-01T12:10:56.490Z,57.26
2023-09-01T12:11:56.447Z,57.26
2023-09-01T12:12:56.453Z,57.59
2023-09-01T12:13:56.442Z,57.87
2023-09-01T12:14:56.420Z,57.29
2023-09-01T12:15:56.492Z,57.62
2023-09-01T12:16:56.509Z,58.99
2023-09-01T12:17:56.497Z,57.89
2023-09-01T12:18:56.433Z,57.89
2023-09-01T12:19:56.419Z,57.46
2023-09-01T12:20:56.421Z,57.26
2023-09-01T12:21:56.330Z,57.17
2023-09-01T12:22:56.419Z,57.76
2023-09-01T12:23:56.324Z,56.87
2023-09-01T12:24:56.380Z,56.57
2023-09-01T12:25:56.328Z,56.54
2023-09-01T12:26:56.348Z,56.14
2023-09-01T12:27:56.270Z,57.41
2023-09-01T12:28:56.306Z,56.48
2023-09-01T12:29:56.284Z,55.16
2023-09-01T12:30:56.264Z,56.13
2023-09-01T12:31:56.321Z,54.53
2023-09-01T12:32:56.378Z,54.86
2023-09-01T12:33:56.353Z,54.46
2023-09-01T12:34:56.227Z,54.36
2023-09-01T12:35:56.212Z,54.36
2023-09-01T12:36:56.201Z,54.89
2023-09-01T12:37:56.200Z,55.39
2023-09-01T12:38:56.210Z,55.58
2023-09-01T12:39:56.153Z,55.09
2023-09-01T12:40:56.144Z,56.26
2023-09-01T12:41:56.255Z,54.86
2023-09-01T12:42:56.146Z,54.79
2023-09-01T12:43:56.196Z,54.64
2023-09-01T12:44:56.156Z,55.79
2023-09-01T12:45:56.260Z,56.09
2023-09-01T12:46:56.103Z,56.42
2023-09-01T12:47:56.136Z,56.72
2023-09-01T12:48:56.126Z,56.62
2023-09-01T12:49:56.113Z,56.92
2023-09-01T12:50:56.086Z,56.89
2023-09-01T12:51:56.026Z,56.59